Terminal Aerodrome Forecast
Issued by NWS Pocatello, ID

Home | Current Version | Previous Version | Text Only | Print | Product List | Glossary On
Versions: 1 2 3 4 5 6 7 8 9 10 11 12 13 14
000
FTUS45 KPIH 312300
TAFBYI
TAF
KBYI 312320Z 0100/0124 05010KT P6SM FEW060 FEW140 SCT200
     FM010200 19008KT P6SM FEW070 FEW140 SCT180
     FM010400 VRB04KT P6SM FEW080 SCT140 SCT180
     FM011800 VRB04KT P6SM VCSH FEW090 SCT160=

USA.gov is the U.S. government's official web portal to all federal, state and local government web resources and services.